sensor_id;sensor_type;location;lat;lon;timestamp;P1;durP1;ratioP1;P2;durP2;ratioP2
49109;SDS011;34921;52.320;16.142;2023-02-28T00:01:26;103.45;;;48.75;;
49109;SDS011;34921;52.320;16.142;2023-02-28T00:03:54;106.37;;;49.27;;
49109;SDS011;34921;52.320;16.142;2023-02-28T00:06:22;98.97;;;46.58;;
49109;SDS011;34921;52.320;16.142;2023-02-28T00:08:51;100.35;;;45.52;;
49109;SDS011;34921;52.320;16.142;2023-02-28T00:11:19;92.50;;;43.65;;
49109;SDS011;34921;52.320;16.142;2023-02-28T00:13:47;93.07;;;43.92;;
49109;SDS011;34921;52.320;16.142;2023-02-28T00:16:19;96.20;;;47.45;;
49109;SDS011;34921;52.320;16.142;2023-02-28T00:18:49;96.30;;;45.17;;
49109;SDS011;34921;52.320;16.142;2023-02-28T00:21:17;96.78;;;44.45;;
49109;SDS011;34921;52.320;16.142;2023-02-28T00:23:46;86.28;;;41.30;;
49109;SDS011;34921;52.320;16.142;2023-02-28T00:26:14;85.30;;;42.08;;
49109;SDS011;34921;52.320;16.142;2023-02-28T00:28:42;83.45;;;41.33;;
49109;SDS011;34921;52.320;16.142;2023-02-28T00:31:09;95.95;;;45.00;;
49109;SDS011;34921;52.320;16.142;2023-02-28T00:33:37;86.42;;;41.92;;
49109;SDS011;34921;52.320;16.142;2023-02-28T00:36:06;86.35;;;41.28;;
49109;SDS011;34921;52.320;16.142;2023-02-28T00:38:36;74.10;;;34.08;;
49109;SDS011;34921;52.320;16.142;2023-02-28T00:41:05;78.20;;;36.20;;
49109;SDS011;34921;52.320;16.142;2023-02-28T00:43:34;76.00;;;36.00;;
49109;SDS011;34921;52.320;16.142;2023-02-28T00:46:03;74.37;;;35.23;;
49109;SDS011;34921;52.320;16.142;2023-02-28T00:48:31;74.40;;;34.55;;
49109;SDS011;34921;52.320;16.142;2023-02-28T00:50:59;69.62;;;32.40;;
49109;SDS011;34921;52.320;16.142;2023-02-28T00:53:27;70.27;;;33.60;;
49109;SDS011;34921;52.320;16.142;2023-02-28T00:55:55;71.82;;;32.70;;
49109;SDS011;34921;52.320;16.142;2023-02-28T00:58:23;71.62;;;33.92;;
49109;SDS011;34921;52.320;16.142;2023-02-28T01:00:52;75.32;;;33.18;;
49109;SDS011;34921;52.320;16.142;2023-02-28T01:03:21;70.45;;;33.63;;
49109;SDS011;34921;52.320;16.142;2023-02-28T01:05:51;70.03;;;32.90;;
49109;SDS011;34921;52.320;16.142;2023-02-28T01:10:48;70.55;;;31.25;;
49109;SDS011;34921;52.320;16.142;2023-02-28T01:13:16;70.92;;;31.73;;
49109;SDS011;34921;52.320;16.142;2023-02-28T01:15:55;69.05;;;32.63;;
49109;SDS011;34921;52.320;16.142;2023-02-28T01:18:23;67.80;;;30.80;;
49109;SDS011;34921;52.320;16.142;2023-02-28T01:20:52;64.00;;;29.85;;
49109;SDS011;34921;52.320;16.142;2023-02-28T01:23:21;70.10;;;30.60;;
49109;SDS011;34921;52.320;16.142;2023-02-28T01:25:51;63.55;;;30.20;;
49109;SDS011;34921;52.320;16.142;2023-02-28T01:28:19;69.57;;;29.83;;
49109;SDS011;34921;52.320;16.142;2023-02-28T01:30:48;70.75;;;28.67;;
49109;SDS011;34921;52.320;16.142;2023-02-28T01:33:17;68.93;;;29.07;;
49109;SDS011;34921;52.320;16.142;2023-02-28T01:35:45;67.80;;;28.33;;
49109;SDS011;34921;52.320;16.142;2023-02-28T01:38:13;72.80;;;28.40;;
49109;SDS011;34921;52.320;16.142;2023-02-28T01:40:40;68.50;;;29.45;;
49109;SDS011;34921;52.320;16.142;2023-02-28T01:45:54;67.08;;;27.77;;
49109;SDS011;34921;52.320;16.142;2023-02-28T01:51:04;59.42;;;24.55;;
49109;SDS011;34921;52.320;16.142;2023-02-28T01:53:36;60.83;;;25.85;;
49109;SDS011;34921;52.320;16.142;2023-02-28T01:56:08;58.60;;;24.75;;
49109;SDS011;34921;52.320;16.142;2023-02-28T01:58:38;55.92;;;24.70;;
49109;SDS011;34921;52.320;16.142;2023-02-28T02:01:06;58.35;;;23.52;;
49109;SDS011;34921;52.320;16.142;2023-02-28T02:03:34;54.18;;;23.20;;
49109;SDS011;34921;52.320;16.142;2023-02-28T02:06:03;51.30;;;21.57;;
49109;SDS011;34921;52.320;16.142;2023-02-28T02:08:31;56.60;;;21.93;;
49109;SDS011;34921;52.320;16.142;2023-02-28T02:10:59;48.68;;;21.17;;
49109;SDS011;34921;52.320;16.142;2023-02-28T02:22:21;49.83;;;19.85;;
49109;SDS011;34921;52.320;16.142;2023-02-28T02:46:53;36.97;;;16.53;;
49109;SDS011;34921;52.320;16.142;2023-02-28T02:49:26;35.95;;;16.70;;
49109;SDS011;34921;52.320;16.142;2023-02-28T02:51:57;37.08;;;16.10;;
49109;SDS011;34921;52.320;16.142;2023-02-28T02:54:30;33.58;;;16.10;;
49109;SDS011;34921;52.320;16.142;2023-02-28T02:57:05;34.35;;;15.83;;
49109;SDS011;34921;52.320;16.142;2023-02-28T02:59:40;37.95;;;15.53;;
49109;SDS011;34921;52.320;16.142;2023-02-28T03:02:10;36.90;;;15.58;;
49109;SDS011;34921;52.320;16.142;2023-02-28T03:04:42;35.03;;;15.08;;
49109;SDS011;34921;52.320;16.142;2023-02-28T03:07:12;35.55;;;15.85;;
49109;SDS011;34921;52.320;16.142;2023-02-28T03:09:40;38.13;;;17.45;;
49109;SDS011;34921;52.320;16.142;2023-02-28T03:12:09;40.35;;;16.60;;
49109;SDS011;34921;52.320;16.142;2023-02-28T03:21:03;31.95;;;15.20;;
49109;SDS011;34921;52.320;16.142;2023-02-28T03:23:52;32.08;;;15.68;;
49109;SDS011;34921;52.320;16.142;2023-02-28T03:26:45;33.55;;;15.65;;
49109;SDS011;34921;52.320;16.142;2023-02-28T03:29:24;34.38;;;16.25;;
49109;SDS011;34921;52.320;16.142;2023-02-28T03:34:46;31.27;;;15.38;;
49109;SDS011;34921;52.320;16.142;2023-02-28T03:37:24;37.08;;;16.00;;
49109;SDS011;34921;52.320;16.142;2023-02-28T03:39:55;32.70;;;16.57;;
49109;SDS011;34921;52.320;16.142;2023-02-28T03:42:27;35.40;;;16.57;;
49109;SDS011;34921;52.320;16.142;2023-02-28T03:44:57;35.88;;;16.52;;
49109;SDS011;34921;52.320;16.142;2023-02-28T03:47:32;34.33;;;15.40;;
49109;SDS011;34921;52.320;16.142;2023-02-28T03:50:03;33.65;;;16.12;;
49109;SDS011;34921;52.320;16.142;2023-02-28T03:52:34;31.33;;;15.67;;
49109;SDS011;34921;52.320;16.142;2023-02-28T03:55:06;31.60;;;15.50;;
49109;SDS011;34921;52.320;16.142;2023-02-28T03:57:43;33.95;;;16.15;;
49109;SDS011;34921;52.320;16.142;2023-02-28T04:00:27;36.87;;;16.10;;
49109;SDS011;34921;52.320;16.142;2023-02-28T04:05:43;36.00;;;15.87;;
49109;SDS011;34921;52.320;16.142;2023-02-28T04:08:16;32.07;;;14.00;;
49109;SDS011;34921;52.320;16.142;2023-02-28T04:10:44;31.27;;;15.32;;
49109;SDS011;34921;52.320;16.142;2023-02-28T04:13:16;28.95;;;15.35;;
49109;SDS011;34921;52.320;16.142;2023-02-28T04:15:43;30.30;;;15.03;;
49109;SDS011;34921;52.320;16.142;2023-02-28T04:18:39;32.33;;;16.67;;
49109;SDS011;34921;52.320;16.142;2023-02-28T04:21:07;32.43;;;15.83;;
49109;SDS011;34921;52.320;16.142;2023-02-28T04:23:35;30.95;;;15.68;;
49109;SDS011;34921;52.320;16.142;2023-02-28T04:26:03;32.05;;;15.80;;
49109;SDS011;34921;52.320;16.142;2023-02-28T04:28:32;33.63;;;15.23;;
49109;SDS011;34921;52.320;16.142;2023-02-28T04:31:02;32.90;;;15.72;;
49109;SDS011;34921;52.320;16.142;2023-02-28T04:33:32;31.37;;;16.70;;
49109;SDS011;34921;52.320;16.142;2023-02-28T04:36:05;31.62;;;16.05;;
49109;SDS011;34921;52.320;16.142;2023-02-28T04:38:37;31.05;;;15.25;;
49109;SDS011;34921;52.320;16.142;2023-02-28T04:41:06;33.20;;;15.58;;
49109;SDS011;34921;52.320;16.142;2023-02-28T04:43:34;35.70;;;14.85;;
49109;SDS011;34921;52.320;16.142;2023-02-28T04:46:02;31.42;;;15.83;;
49109;SDS011;34921;52.320;16.142;2023-02-28T04:48:32;33.13;;;15.50;;
49109;SDS011;34921;52.320;16.142;2023-02-28T04:51:01;31.33;;;15.23;;
49109;SDS011;34921;52.320;16.142;2023-02-28T04:53:33;30.25;;;15.35;;
49109;SDS011;34921;52.320;16.142;2023-02-28T04:56:02;33.67;;;16.10;;
49109;SDS011;34921;52.320;16.142;2023-02-28T04:58:30;33.73;;;15.70;;
49109;SDS011;34921;52.320;16.142;2023-02-28T05:01:02;35.73;;;16.97;;
49109;SDS011;34921;52.320;16.142;2023-02-28T05:03:40;32.83;;;16.67;;
49109;SDS011;34921;52.320;16.142;2023-02-28T05:06:08;30.92;;;15.08;;
49109;SDS011;34921;52.320;16.142;2023-02-28T05:08:37;34.70;;;16.50;;
49109;SDS011;34921;52.320;16.142;2023-02-28T05:11:06;32.55;;;16.23;;
49109;SDS011;34921;52.320;16.142;2023-02-28T05:13:38;35.60;;;17.10;;
49109;SDS011;34921;52.320;16.142;2023-02-28T05:16:06;38.00;;;16.57;;
49109;SDS011;34921;52.320;16.142;2023-02-28T05:18:34;34.25;;;17.05;;
49109;SDS011;34921;52.320;16.142;2023-02-28T05:21:02;33.67;;;17.00;;
49109;SDS011;34921;52.320;16.142;2023-02-28T05:23:30;35.38;;;16.93;;
49109;SDS011;34921;52.320;16.142;2023-02-28T05:25:58;33.58;;;17.35;;
49109;SDS011;34921;52.320;16.142;2023-02-28T05:28:26;34.70;;;17.07;;
49109;SDS011;34921;52.320;16.142;2023-02-28T05:30:54;36.17;;;17.35;;
49109;SDS011;34921;52.320;16.142;2023-02-28T05:33:22;38.13;;;17.90;;
49109;SDS011;34921;52.320;16.142;2023-02-28T05:35:50;36.98;;;18.52;;
49109;SDS011;34921;52.320;16.142;2023-02-28T05:38:18;39.83;;;18.90;;
49109;SDS011;34921;52.320;16.142;2023-02-28T05:40:46;36.58;;;17.82;;
49109;SDS011;34921;52.320;16.142;2023-02-28T05:43:13;40.65;;;18.02;;
49109;SDS011;34921;52.320;16.142;2023-02-28T05:45:41;40.55;;;18.70;;
49109;SDS011;34921;52.320;16.142;2023-02-28T05:48:09;40.45;;;18.23;;
49109;SDS011;34921;52.320;16.142;2023-02-28T05:50:37;39.38;;;18.30;;
49109;SDS011;34921;52.320;16.142;2023-02-28T05:53:05;39.87;;;17.80;;
49109;SDS011;34921;52.320;16.142;2023-02-28T05:55:33;38.05;;;17.90;;
49109;SDS011;34921;52.320;16.142;2023-02-28T05:58:03;33.00;;;16.82;;
49109;SDS011;34921;52.320;16.142;2023-02-28T06:00:31;38.10;;;17.98;;
49109;SDS011;34921;52.320;16.142;2023-02-28T06:02:59;38.67;;;18.25;;
49109;SDS011;34921;52.320;16.142;2023-02-28T06:05:29;38.77;;;17.20;;
49109;SDS011;34921;52.320;16.142;2023-02-28T06:07:57;42.67;;;19.80;;
49109;SDS011;34921;52.320;16.142;2023-02-28T06:10:25;38.23;;;18.35;;
49109;SDS011;34921;52.320;16.142;2023-02-28T06:12:53;44.42;;;18.85;;
49109;SDS011;34921;52.320;16.142;2023-02-28T06:15:21;46.55;;;20.90;;
49109;SDS011;34921;52.320;16.142;2023-02-28T06:17:49;41.48;;;18.57;;
49109;SDS011;34921;52.320;16.142;2023-02-28T06:20:17;44.90;;;20.23;;
49109;SDS011;34921;52.320;16.142;2023-02-28T06:22:45;40.78;;;19.27;;
49109;SDS011;34921;52.320;16.142;2023-02-28T06:25:13;45.80;;;20.57;;
49109;SDS011;34921;52.320;16.142;2023-02-28T06:27:41;51.80;;;21.97;;
49109;SDS011;34921;52.320;16.142;2023-02-28T06:30:10;44.00;;;19.67;;
49109;SDS011;34921;52.320;16.142;2023-02-28T06:32:39;45.15;;;21.12;;
49109;SDS011;34921;52.320;16.142;2023-02-28T06:35:07;51.55;;;21.40;;
49109;SDS011;34921;52.320;16.142;2023-02-28T06:37:35;49.67;;;21.27;;
49109;SDS011;34921;52.320;16.142;2023-02-28T06:40:03;48.70;;;19.95;;
49109;SDS011;34921;52.320;16.142;2023-02-28T06:42:34;44.53;;;20.55;;
49109;SDS011;34921;52.320;16.142;2023-02-28T06:45:02;49.45;;;21.30;;
49109;SDS011;34921;52.320;16.142;2023-02-28T06:47:37;45.35;;;20.02;;
49109;SDS011;34921;52.320;16.142;2023-02-28T06:50:07;46.33;;;21.67;;
49109;SDS011;34921;52.320;16.142;2023-02-28T06:52:38;46.90;;;20.93;;
49109;SDS011;34921;52.320;16.142;2023-02-28T06:55:06;48.13;;;21.48;;
49109;SDS011;34921;52.320;16.142;2023-02-28T06:57:35;42.30;;;20.23;;
49109;SDS011;34921;52.320;16.142;2023-02-28T07:00:05;40.07;;;20.43;;
49109;SDS011;34921;52.320;16.142;2023-02-28T07:02:35;46.50;;;20.77;;
49109;SDS011;34921;52.320;16.142;2023-02-28T07:05:05;50.17;;;21.57;;
49109;SDS011;34921;52.320;16.142;2023-02-28T07:07:33;50.47;;;21.17;;
49109;SDS011;34921;52.320;16.142;2023-02-28T07:12:31;58.50;;;22.62;;
49109;SDS011;34921;52.320;16.142;2023-02-28T07:14:59;59.50;;;21.27;;
49109;SDS011;34921;52.320;16.142;2023-02-28T07:17:27;43.20;;;19.92;;
49109;SDS011;34921;52.320;16.142;2023-02-28T07:19:55;43.92;;;19.40;;
49109;SDS011;34921;52.320;16.142;2023-02-28T07:22:23;44.10;;;19.40;;
49109;SDS011;34921;52.320;16.142;2023-02-28T07:24:52;47.55;;;19.45;;
49109;SDS011;34921;52.320;16.142;2023-02-28T07:27:20;37.67;;;18.63;;
49109;SDS011;34921;52.320;16.142;2023-02-28T07:29:54;39.08;;;17.52;;
49109;SDS011;34921;52.320;16.142;2023-02-28T07:32:22;35.10;;;16.73;;
49109;SDS011;34921;52.320;16.142;2023-02-28T07:34:50;39.15;;;18.23;;
49109;SDS011;34921;52.320;16.142;2023-02-28T07:37:18;37.30;;;17.23;;
49109;SDS011;34921;52.320;16.142;2023-02-28T07:39:46;37.17;;;17.00;;
49109;SDS011;34921;52.320;16.142;2023-02-28T07:42:14;32.70;;;16.07;;
49109;SDS011;34921;52.320;16.142;2023-02-28T07:44:42;32.33;;;15.95;;
49109;SDS011;34921;52.320;16.142;2023-02-28T07:47:10;38.33;;;15.93;;
49109;SDS011;34921;52.320;16.142;2023-02-28T07:49:37;34.80;;;17.00;;
49109;SDS011;34921;52.320;16.142;2023-02-28T07:52:06;33.65;;;15.03;;
49109;SDS011;34921;52.320;16.142;2023-02-28T07:54:34;32.13;;;15.45;;
49109;SDS011;34921;52.320;16.142;2023-02-28T07:57:02;31.30;;;15.45;;
49109;SDS011;34921;52.320;16.142;2023-02-28T07:59:30;37.65;;;16.77;;
49109;SDS011;34921;52.320;16.142;2023-02-28T08:01:58;36.35;;;18.37;;
49109;SDS011;34921;52.320;16.142;2023-02-28T08:04:26;39.58;;;21.23;;
49109;SDS011;34921;52.320;16.142;2023-02-28T08:06:54;42.98;;;21.97;;
49109;SDS011;34921;52.320;16.142;2023-02-28T08:09:23;35.95;;;20.88;;
49109;SDS011;34921;52.320;16.142;2023-02-28T08:11:51;33.00;;;17.77;;
49109;SDS011;34921;52.320;16.142;2023-02-28T08:14:19;33.80;;;16.23;;
49109;SDS011;34921;52.320;16.142;2023-02-28T08:16:47;27.85;;;15.43;;
49109;SDS011;34921;52.320;16.142;2023-02-28T08:19:15;32.15;;;16.37;;
49109;SDS011;34921;52.320;16.142;2023-02-28T08:21:43;29.30;;;14.30;;
49109;SDS011;34921;52.320;16.142;2023-02-28T08:24:11;24.65;;;13.20;;
49109;SDS011;34921;52.320;16.142;2023-02-28T08:26:39;28.67;;;13.58;;
49109;SDS011;34921;52.320;16.142;2023-02-28T08:29:07;30.75;;;14.43;;
49109;SDS011;34921;52.320;16.142;2023-02-28T08:31:35;75.00;;;27.75;;
49109;SDS011;34921;52.320;16.142;2023-02-28T08:34:07;29.07;;;13.10;;
49109;SDS011;34921;52.320;16.142;2023-02-28T08:39:23;32.97;;;15.33;;
49109;SDS011;34921;52.320;16.142;2023-02-28T08:41:51;36.45;;;18.30;;
49109;SDS011;34921;52.320;16.142;2023-02-28T08:44:19;29.10;;;13.88;;
49109;SDS011;34921;52.320;16.142;2023-02-28T08:46:46;27.45;;;13.93;;
49109;SDS011;34921;52.320;16.142;2023-02-28T08:49:14;22.32;;;10.50;;
49109;SDS011;34921;52.320;16.142;2023-02-28T08:51:43;26.42;;;13.65;;
49109;SDS011;34921;52.320;16.142;2023-02-28T08:54:11;23.40;;;12.37;;
49109;SDS011;34921;52.320;16.142;2023-02-28T08:56:46;15.00;;;6.30;;
49109;SDS011;34921;52.320;16.142;2023-02-28T08:59:14;19.40;;;11.10;;
49109;SDS011;34921;52.320;16.142;2023-02-28T09:01:43;14.10;;;7.03;;
49109;SDS011;34921;52.320;16.142;2023-02-28T09:04:11;15.83;;;7.00;;
49109;SDS011;34921;52.320;16.142;2023-02-28T09:06:39;15.68;;;7.60;;
49109;SDS011;34921;52.320;16.142;2023-02-28T09:09:06;14.28;;;6.40;;
49109;SDS011;34921;52.320;16.142;2023-02-28T09:11:35;19.03;;;10.67;;
49109;SDS011;34921;52.320;16.142;2023-02-28T09:14:03;17.20;;;9.03;;
49109;SDS011;34921;52.320;16.142;2023-02-28T09:16:31;12.28;;;6.42;;
49109;SDS011;34921;52.320;16.142;2023-02-28T09:19:00;25.95;;;13.08;;
49109;SDS011;34921;52.320;16.142;2023-02-28T09:21:29;18.45;;;8.08;;
49109;SDS011;34921;52.320;16.142;2023-02-28T09:23:57;21.37;;;8.23;;
49109;SDS011;34921;52.320;16.142;2023-02-28T09:26:25;27.35;;;12.07;;
49109;SDS011;34921;52.320;16.142;2023-02-28T09:28:54;15.18;;;7.55;;
49109;SDS011;34921;52.320;16.142;2023-02-28T09:31:24;121.28;;;50.78;;
49109;SDS011;34921;52.320;16.142;2023-02-28T09:33:54;26.52;;;11.60;;
49109;SDS011;34921;52.320;16.142;2023-02-28T09:36:23;15.08;;;7.37;;
49109;SDS011;34921;52.320;16.142;2023-02-28T09:38:52;25.97;;;10.45;;
49109;SDS011;34921;52.320;16.142;2023-02-28T09:41:21;25.97;;;9.23;;
49109;SDS011;34921;52.320;16.142;2023-02-28T09:43:58;14.00;;;6.03;;
49109;SDS011;34921;52.320;16.142;2023-02-28T09:46:35;105.22;;;38.85;;
49109;SDS011;34921;52.320;16.142;2023-02-28T09:49:11;30.10;;;11.85;;
49109;SDS011;34921;52.320;16.142;2023-02-28T09:54:16;18.97;;;7.80;;
49109;SDS011;34921;52.320;16.142;2023-02-28T09:56:50;58.10;;;22.00;;
49109;SDS011;34921;52.320;16.142;2023-02-28T09:59:42;32.70;;;13.35;;
49109;SDS011;34921;52.320;16.142;2023-02-28T10:05:04;31.23;;;14.77;;
49109;SDS011;34921;52.320;16.142;2023-02-28T10:13:22;10.40;;;5.17;;
49109;SDS011;34921;52.320;16.142;2023-02-28T10:15:58;11.40;;;5.37;;
49109;SDS011;34921;52.320;16.142;2023-02-28T10:21:37;6.92;;;3.90;;
49109;SDS011;34921;52.320;16.142;2023-02-28T10:24:21;19.32;;;7.67;;
49109;SDS011;34921;52.320;16.142;2023-02-28T10:26:58;46.65;;;18.23;;
49109;SDS011;34921;52.320;16.142;2023-02-28T10:29:29;48.15;;;18.95;;
49109;SDS011;34921;52.320;16.142;2023-02-28T10:34:27;54.70;;;25.15;;
49109;SDS011;34921;52.320;16.142;2023-02-28T10:36:55;45.65;;;20.65;;
49109;SDS011;34921;52.320;16.142;2023-02-28T10:39:34;57.30;;;24.40;;
49109;SDS011;34921;52.320;16.142;2023-02-28T10:42:04;28.87;;;13.80;;
49109;SDS011;34921;52.320;16.142;2023-02-28T10:44:32;28.73;;;13.60;;
49109;SDS011;34921;52.320;16.142;2023-02-28T10:47:00;12.25;;;6.40;;
49109;SDS011;34921;52.320;16.142;2023-02-28T10:49:28;39.58;;;19.75;;
49109;SDS011;34921;52.320;16.142;2023-02-28T10:51:57;17.55;;;10.28;;
49109;SDS011;34921;52.320;16.142;2023-02-28T10:54:29;11.05;;;6.80;;
49109;SDS011;34921;52.320;16.142;2023-02-28T10:57:13;23.95;;;12.95;;
49109;SDS011;34921;52.320;16.142;2023-02-28T10:59:42;14.17;;;7.37;;
49109;SDS011;34921;52.320;16.142;2023-02-28T11:05:02;19.17;;;10.18;;
49109;SDS011;34921;52.320;16.142;2023-02-28T11:07:30;35.43;;;17.60;;
49109;SDS011;34921;52.320;16.142;2023-02-28T11:09:58;30.97;;;13.90;;
49109;SDS011;34921;52.320;16.142;2023-02-28T11:12:31;16.30;;;8.13;;
49109;SDS011;34921;52.320;16.142;2023-02-28T11:21:06;17.92;;;9.48;;
49109;SDS011;34921;52.320;16.142;2023-02-28T11:23:36;20.83;;;9.87;;
49109;SDS011;34921;52.320;16.142;2023-02-28T11:26:08;51.48;;;23.75;;
49109;SDS011;34921;52.320;16.142;2023-02-28T11:28:39;21.30;;;11.40;;
49109;SDS011;34921;52.320;16.142;2023-02-28T11:36:13;20.43;;;10.28;;
49109;SDS011;34921;52.320;16.142;2023-02-28T11:38:43;12.70;;;6.12;;
49109;SDS011;34921;52.320;16.142;2023-02-28T11:44:20;11.05;;;6.17;;
49109;SDS011;34921;52.320;16.142;2023-02-28T11:50:12;203.40;;;96.80;;
49109;SDS011;34921;52.320;16.142;2023-02-28T12:05:49;28.27;;;18.77;;
49109;SDS011;34921;52.320;16.142;2023-02-28T12:14:14;10.28;;;6.33;;
49109;SDS011;34921;52.320;16.142;2023-02-28T12:26:07;14.27;;;8.20;;
49109;SDS011;34921;52.320;16.142;2023-02-28T12:31:18;17.90;;;9.80;;
49109;SDS011;34921;52.320;16.142;2023-02-28T12:33:53;39.40;;;21.85;;
49109;SDS011;34921;52.320;16.142;2023-02-28T12:36:24;20.20;;;10.85;;
49109;SDS011;34921;52.320;16.142;2023-02-28T12:41:37;23.35;;;13.30;;
49109;SDS011;34921;52.320;16.142;2023-02-28T12:44:11;53.40;;;27.75;;
49109;SDS011;34921;52.320;16.142;2023-02-28T12:46:42;43.15;;;25.43;;
49109;SDS011;34921;52.320;16.142;2023-02-28T12:52:37;17.75;;;9.03;;
49109;SDS011;34921;52.320;16.142;2023-02-28T13:07:56;12.15;;;5.92;;
49109;SDS011;34921;52.320;16.142;2023-02-28T13:10:37;26.37;;;13.58;;
49109;SDS011;34921;52.320;16.142;2023-02-28T13:13:17;23.80;;;12.07;;
49109;SDS011;34921;52.320;16.142;2023-02-28T13:16:06;23.02;;;12.88;;
49109;SDS011;34921;52.320;16.142;2023-02-28T13:18:39;9.18;;;4.95;;
49109;SDS011;34921;52.320;16.142;2023-02-28T13:34:37;10.98;;;6.92;;
49109;SDS011;34921;52.320;16.142;2023-02-28T13:39:51;11.90;;;7.55;;
49109;SDS011;34921;52.320;16.142;2023-02-28T13:47:44;14.98;;;9.60;;
49109;SDS011;34921;52.320;16.142;2023-02-28T13:53:01;12.47;;;7.20;;
49109;SDS011;34921;52.320;16.142;2023-02-28T14:06:51;19.73;;;10.82;;
49109;SDS011;34921;52.320;16.142;2023-02-28T14:09:23;9.13;;;4.95;;
49109;SDS011;34921;52.320;16.142;2023-02-28T14:11:53;10.32;;;5.62;;
49109;SDS011;34921;52.320;16.142;2023-02-28T14:17:03;11.78;;;6.45;;
49109;SDS011;34921;52.320;16.142;2023-02-28T14:19:35;15.40;;;8.83;;
49109;SDS011;34921;52.320;16.142;2023-02-28T14:27:47;20.00;;;10.25;;
49109;SDS011;34921;52.320;16.142;2023-02-28T14:36:17;10.90;;;6.28;;
49109;SDS011;34921;52.320;16.142;2023-02-28T14:38:59;13.10;;;8.20;;
49109;SDS011;34921;52.320;16.142;2023-02-28T14:44:18;44.88;;;36.45;;
49109;SDS011;34921;52.320;16.142;2023-02-28T14:46:48;24.73;;;16.40;;
49109;SDS011;34921;52.320;16.142;2023-02-28T14:52:03;8.30;;;5.03;;
49109;SDS011;34921;52.320;16.142;2023-02-28T14:54:41;10.23;;;5.15;;
49109;SDS011;34921;52.320;16.142;2023-02-28T14:57:21;12.97;;;8.20;;
49109;SDS011;34921;52.320;16.142;2023-02-28T15:02:42;15.88;;;7.85;;
49109;SDS011;34921;52.320;16.142;2023-02-28T15:07:45;12.63;;;8.43;;
49109;SDS011;34921;52.320;16.142;2023-02-28T15:10:22;8.98;;;5.70;;
49109;SDS011;34921;52.320;16.142;2023-02-28T15:12:56;20.72;;;12.20;;
49109;SDS011;34921;52.320;16.142;2023-02-28T15:18:17;8.75;;;5.10;;
49109;SDS011;34921;52.320;16.142;2023-02-28T15:21:05;11.65;;;6.97;;
49109;SDS011;34921;52.320;16.142;2023-02-28T15:23:34;26.00;;;15.55;;
49109;SDS011;34921;52.320;16.142;2023-02-28T15:26:04;23.25;;;13.32;;
49109;SDS011;34921;52.320;16.142;2023-02-28T15:28:33;16.10;;;9.45;;
49109;SDS011;34921;52.320;16.142;2023-02-28T15:31:01;16.40;;;10.60;;
49109;SDS011;34921;52.320;16.142;2023-02-28T15:33:31;32.98;;;13.13;;
49109;SDS011;34921;52.320;16.142;2023-02-28T15:36:19;81.80;;;31.40;;
49109;SDS011;34921;52.320;16.142;2023-02-28T15:38:50;26.57;;;13.53;;
49109;SDS011;34921;52.320;16.142;2023-02-28T15:41:24;37.63;;;19.83;;
49109;SDS011;34921;52.320;16.142;2023-02-28T15:46:53;18.50;;;11.80;;
49109;SDS011;34921;52.320;16.142;2023-02-28T15:49:23;15.38;;;8.63;;
49109;SDS011;34921;52.320;16.142;2023-02-28T15:51:52;29.80;;;18.00;;
49109;SDS011;34921;52.320;16.142;2023-02-28T15:54:27;18.57;;;9.97;;
49109;SDS011;34921;52.320;16.142;2023-02-28T15:57:05;17.02;;;9.25;;
49109;SDS011;34921;52.320;16.142;2023-02-28T15:59:36;19.52;;;10.60;;
49109;SDS011;34921;52.320;16.142;2023-02-28T16:02:21;18.73;;;11.43;;
49109;SDS011;34921;52.320;16.142;2023-02-28T16:04:58;39.08;;;21.95;;
49109;SDS011;34921;52.320;16.142;2023-02-28T16:07:40;31.03;;;18.93;;
49109;SDS011;34921;52.320;16.142;2023-02-28T16:10:10;24.20;;;13.50;;
49109;SDS011;34921;52.320;16.142;2023-02-28T16:12:39;16.30;;;10.30;;
49109;SDS011;34921;52.320;16.142;2023-02-28T16:15:22;18.05;;;10.78;;
49109;SDS011;34921;52.320;16.142;2023-02-28T16:17:53;19.98;;;10.70;;
49109;SDS011;34921;52.320;16.142;2023-02-28T16:20:23;21.95;;;11.88;;
49109;SDS011;34921;52.320;16.142;2023-02-28T16:22:54;21.57;;;13.43;;
49109;SDS011;34921;52.320;16.142;2023-02-28T16:25:23;23.73;;;14.00;;
49109;SDS011;34921;52.320;16.142;2023-02-28T16:27:54;18.45;;;13.15;;
49109;SDS011;34921;52.320;16.142;2023-02-28T16:32:56;22.37;;;14.30;;
49109;SDS011;34921;52.320;16.142;2023-02-28T16:35:25;20.72;;;13.85;;
49109;SDS011;34921;52.320;16.142;2023-02-28T16:37:53;23.00;;;12.90;;
49109;SDS011;34921;52.320;16.142;2023-02-28T16:40:23;21.05;;;13.48;;
49109;SDS011;34921;52.320;16.142;2023-02-28T16:42:53;27.93;;;14.80;;
49109;SDS011;34921;52.320;16.142;2023-02-28T16:45:24;35.08;;;16.05;;
49109;SDS011;34921;52.320;16.142;2023-02-28T16:47:54;38.55;;;18.17;;
49109;SDS011;34921;52.320;16.142;2023-02-28T16:50:23;33.50;;;16.93;;
49109;SDS011;34921;52.320;16.142;2023-02-28T16:52:55;37.53;;;19.27;;
49109;SDS011;34921;52.320;16.142;2023-02-28T16:55:24;40.92;;;18.17;;
49109;SDS011;34921;52.320;16.142;2023-02-28T16:57:54;39.42;;;19.17;;
49109;SDS011;34921;52.320;16.142;2023-02-28T17:00:27;43.68;;;22.70;;
49109;SDS011;34921;52.320;16.142;2023-02-28T17:02:56;53.77;;;27.00;;
49109;SDS011;34921;52.320;16.142;2023-02-28T17:05:26;63.98;;;31.55;;
49109;SDS011;34921;52.320;16.142;2023-02-28T17:08:00;88.13;;;38.47;;
49109;SDS011;34921;52.320;16.142;2023-02-28T17:10:28;84.57;;;36.70;;
49109;SDS011;34921;52.320;16.142;2023-02-28T17:12:56;68.77;;;32.60;;
49109;SDS011;34921;52.320;16.142;2023-02-28T17:15:24;75.70;;;35.38;;
49109;SDS011;34921;52.320;16.142;2023-02-28T17:17:52;71.92;;;35.05;;
49109;SDS011;34921;52.320;16.142;2023-02-28T17:20:21;64.70;;;31.90;;
49109;SDS011;34921;52.320;16.142;2023-02-28T17:22:54;67.78;;;30.35;;
49109;SDS011;34921;52.320;16.142;2023-02-28T17:25:23;66.97;;;29.32;;
49109;SDS011;34921;52.320;16.142;2023-02-28T17:27:52;68.85;;;28.52;;
49109;SDS011;34921;52.320;16.142;2023-02-28T17:30:21;62.70;;;25.65;;
49109;SDS011;34921;52.320;16.142;2023-02-28T17:32:51;67.10;;;26.53;;
49109;SDS011;34921;52.320;16.142;2023-02-28T17:35:19;55.43;;;24.17;;
49109;SDS011;34921;52.320;16.142;2023-02-28T17:37:47;56.57;;;24.43;;
49109;SDS011;34921;52.320;16.142;2023-02-28T17:40:16;58.20;;;24.92;;
49109;SDS011;34921;52.320;16.142;2023-02-28T17:42:46;60.33;;;25.50;;
49109;SDS011;34921;52.320;16.142;2023-02-28T17:45:14;56.95;;;25.77;;
49109;SDS011;34921;52.320;16.142;2023-02-28T17:47:43;57.88;;;25.95;;
49109;SDS011;34921;52.320;16.142;2023-02-28T17:50:15;61.35;;;27.75;;
49109;SDS011;34921;52.320;16.142;2023-02-28T17:52:45;72.10;;;29.07;;
49109;SDS011;34921;52.320;16.142;2023-02-28T17:55:14;81.20;;;32.28;;
49109;SDS011;34921;52.320;16.142;2023-02-28T17:57:42;101.62;;;39.35;;
49109;SDS011;34921;52.320;16.142;2023-02-28T18:00:12;102.05;;;37.40;;
49109;SDS011;34921;52.320;16.142;2023-02-28T18:02:41;97.35;;;38.30;;